• Join FlightAware (Why Join?)
  • Login
  • US Flag 
02:48AM EDT


 

Airport Tracker/Info


-or-


 

Live Flight TrackerFlight Track Log ✈ EGF2730 ✈ 27-Jul-2013 ✈ CYYZ - KORD

Flight Track Log - Related Links

Times and Time Zones

All times are in EDT time to prevent confusion due to time zone crossing. See the EGF2730 flight status page for this flight to view local times or setup timezone preferences in your user account.

Time Position Orientation Groundspeed Altitude Reporting Facility
EDT Latitude Longitude Course Direction KTS MPH feet Rate Location/Type
02:30PM 43.6667 -79.6833 279° West 180 207 2,400  Level Toronto Center
02:31PM 43.6833 -79.7667 285° West 220 253 4,500 2,100 Climbing Toronto Center
02:32PM 43.6822 -79.9586 281° West  Level FlightAware Approximate
02:32PM 43.6833 -79.8333 270° West 230 265 6,600  Level Toronto Center
02:33PM 43.6925 -80.0755 277° West  Level FlightAware Approximate
02:33PM 43.7000 -79.9333 283° West 240 276 8,700  Level Toronto Center
02:34PM 43.7000 -80.1928 270° West  Level FlightAware Approximate
02:34PM 43.7167 -80.0333 283° West 260 299 10,800  Level Toronto Center
02:35PM 43.7085 -80.3100 277° West  Level FlightAware Approximate
02:35PM 43.7500 -80.1333 295° West 260 299 12,500  Level Toronto Center
02:36PM 43.7212 -80.4403 279° West  Level FlightAware Approximate
02:36PM 43.7333 -80.2333 257° West 270 311 13,900  Level Toronto Center
02:37PM 43.7167 -80.3500 259° West 300 345 14,900 960 Climbing Toronto Center
02:38PM 43.7167 -80.4833 270° West 330 380 15,900 960 Climbing Toronto Center
02:39PM 43.7000 -80.6167 260° West 340 391 16,900 1,200 Climbing Toronto Center
02:40PM 43.7000 -80.7333 270° West 350 403 18,300 1,800 Climbing Toronto Center
02:41PM 43.6833 -80.8833 261° West 340 391 20,500 1,800 Climbing Toronto Center
02:42PM 43.6833 -81.0000 270° West 330 380 21,900 1,380 Climbing Toronto Center
02:43PM 43.7000 -81.1333 280° West 330 380 23,300 1,380 Climbing Toronto Center
02:44PM 43.7000 -81.2500 270° West 330 380 24,700 1,440 Climbing Toronto Center
02:45PM 43.7000 -81.3833 270° West 340 391 26,200 1,320 Climbing Toronto Center
02:46PM 43.7000 -81.5000 270° West 320 368 27,400 1,080 Climbing Toronto Center
02:47PM 43.6500 -81.6167 239° Southwest 320 368 28,400 900 Climbing Toronto Center
02:48PM 43.6167 -81.7333 248° West 330 380 29,300 900 Climbing Toronto Center
02:49PM 43.5833 -81.8667 251° West 340 391 30,300 900 Climbing Toronto Center
02:50PM 43.5333 -81.9833 239° Southwest 340 391 31,200 840 Climbing Toronto Center
02:51PM 43.5000 -82.1000 249° West 350 403 32,000 360 Climbing Toronto Center
02:52PM 43.4667 -82.2333 251° West 360 414 32,000  Level Toronto Center
02:53PM 43.4167 -82.3333 235° Southwest 380 437 32,000  Level Toronto Center
02:54PM 43.3833 -82.5000 255° West 380 437 32,000  Level Toronto Center
02:55PM 43.3333 -82.6167 240° Southwest 380 437 32,000 720 Level Toronto Center
02:56PM 43.2833 -82.7500 243° Southwest 370 426 33,500 960 Climbing Toronto Center
02:57PM 43.2500 -82.8833 251° West 360 414 34,000 240 Climbing Toronto Center
02:58PM 43.2000 -83.0000 240° Southwest 360 414 34,000  Level Toronto Center
02:59PM 43.1667 -83.1333 251° West 370 426 34,000  Level Toronto Center
03:00PM 43.1167 -83.2667 243° Southwest 370 426 34,000  Level Toronto Center
03:01PM 43.0667 -83.3833 240° Southwest 370 426 34,000  Level Toronto Center
03:02PM 43.0333 -83.5167 251° West 380 437 34,000 -180 Level Toronto Center
03:03PM 43.0000 -83.6500 251° West 380 437 33,700 -540 Descending Toronto Center
03:04PM 42.9500 -83.7833 243° Southwest 390 449 33,000 -420 Descending Toronto Center
03:05PM 42.9531 -83.8961 272° West 397 457 33,000  Level Chicago Center
03:06PM 42.9411 -83.9981 261° West 393 452 33,000 -600 Level Cleveland Center
03:07PM 42.9281 -84.1506 263° West 404 465 32,100 -420 Descending Cleveland Center
03:08PM 42.9053 -84.3783 262° West 400 460 32,000 -60 Descending Chicago Center
03:09PM 42.8897 -84.5283 262° West 401 461 32,000  Level Chicago Center
03:10PM 42.8744 -84.6800 262° West 402 463 32,000  Level Chicago Center
03:11PM 42.8583 -84.8314 262° West 404 465 32,000  Level Chicago Center
03:12PM 42.8419 -84.9864 262° West 411 473 32,000  Level Chicago Center
03:13PM 42.8219 -85.1731 262° West 414 476 32,000 -480 Level Chicago Center
03:14PM 42.8050 -85.3250 261° West 409 471 31,100 -960 Descending Chicago Center
03:15PM 42.7883 -85.4769 262° West 406 467 30,000 -1,140 Descending Chicago Center
03:16PM 42.7647 -85.6253 258° West 402 463 28,800 -1,800 Descending Chicago Center
03:17PM 42.7389 -85.7625 256° West 379 436 26,400 -2,220 Descending Chicago Center
03:18PM 42.7158 -85.8925 256° West 357 411 24,200 -1,500 Descending Chicago Center
03:20PM 42.6911 -86.0225 256° West 352 405 23,300 -1,620 Descending Chicago Center
03:21PM 42.6636 -86.1750 256° West 347 399 20,900 -1,620 Descending Chicago Center
03:22PM 42.6408 -86.2983 256° West 338 389 20,000 -540 Descending Chicago Center
03:23PM 42.6167 -86.4219 255° West 340 391 19,800 -1,020 Descending Chicago Center
03:24PM 42.5944 -86.5444 256° West 335 386 17,900 -1,920 Descending Chicago Center
03:25PM 42.5708 -86.6644 255° West 332 382 15,900 -2,040 Descending Chicago Center
03:26PM 42.5458 -86.7822 254° West 326 375 13,800 -2,040 Descending Chicago Center
03:27PM 42.5153 -86.8942 250° West 319 367 11,800 -1,680 Descending Chicago Center
03:28PM 42.4806 -87.0169 249° West 290 334 10,400 -1,260 Descending Chicago Center
03:29PM 42.4539 -87.1117 249° West 271 312 9,300 -480 Descending Chicago Center
03:31PM 42.3500 -87.2500 225° Southwest 281 323 9,000 -120 Descending Chicago TRACON
03:32PM 42.2808 -87.2600 186° South 279 321 9,000 -600 Level Chicago Center
03:33PM 42.2042 -87.2669 184° South 275 316 7,900 -1,020 Descending Chicago Center
03:34PM 42.1331 -87.2731 184° South 260 299 7,000 -480 Descending Chicago Center
03:35PM 42.0694 -87.3097 203° Southwest 250 288 7,000  Level Chicago Center
03:36PM 42.0097 -87.3789 221° Southwest 253 291 7,000 -480 Level Chicago Center
03:37PM 41.9833 -87.4622 247° West 244 281 6,100 -660 Descending Chicago Center
03:38PM 41.9844 -87.5539 271° West 252 290 5,700 -900 Descending Chicago Center
03:39PM 41.9842 -87.6442 270° West 247 284 4,300 -1,260 Descending Chicago Center
03:40PM 41.9836 -87.7181 269° West 227 261 3,200 -1,080 Descending Chicago Center
03:41PM 41.9842 -87.7942 271° West 191 220 2,100 -900 Descending Chicago Center
03:42PM 41.9836 -87.8464 269° West 168 193 1,400 -720 Descending Chicago Center